TRA3CM EBAW-EDXW
Flight info
| Callsign | TRA3CM |
|---|---|
| Flight time | 0h 56m |
| Altitude | 35000 |
| Route | NIK1R NIK L191 VICOT N873 HUNQI DCT ROCZO DCT FUFNA DCT OLDIP DCT |
| Aircraft | B738/M-SDE2E3FGHIRWXY/LB1 |
Departure
| Time | 2026-04-29 15:20 |
|---|---|
| Airport | Antwerp International Airport (Deurne) (EBAW) |
Arrival
| Time | 2026-04-29 16:17 |
|---|---|
| Airport | Westerland Sylt Airport (EDXW) |
| Time | Latitude | Longitude | Altitude | Speed | Heading |
|---|---|---|---|---|---|
| 2026-04-29 15:07 | 51.18903 | 4.45276 | 46 ft | 0 kts | 328° |
| 2026-04-29 15:15 | 51.18910 | 4.45269 | 46 ft | 5 kts | 328° |
| 2026-04-29 15:16 | 51.18943 | 4.45268 | 46 ft | 5 kts | 33° |
| 2026-04-29 15:16 | 51.18950 | 4.45316 | 46 ft | 4 kts | 105° |
| 2026-04-29 15:16 | 51.18948 | 4.45324 | 46 ft | 0 kts | 109° |
| 2026-04-29 15:16 | 51.18944 | 4.45371 | 46 ft | 5 kts | 78° |
| 2026-04-29 15:17 | 51.18975 | 4.45447 | 46 ft | 11 kts | 54° |
| 2026-04-29 15:17 | 51.19029 | 4.45512 | 46 ft | 9 kts | 352° |
| 2026-04-29 15:17 | 51.19081 | 4.45458 | 46 ft | 0 kts | 324° |
| 2026-04-29 15:18 | 51.19090 | 4.45447 | 46 ft | 8 kts | 322° |
| 2026-04-29 15:18 | 51.19163 | 4.45356 | 45 ft | 12 kts | 321° |
| 2026-04-29 15:18 | 51.19215 | 4.45321 | 45 ft | 2 kts | 31° |
| 2026-04-29 15:18 | 51.19215 | 4.45345 | 45 ft | 0 kts | 109° |
| 2026-04-29 15:19 | 51.19211 | 4.45366 | 45 ft | 10 kts | 109° |
| 2026-04-29 15:19 | 51.19149 | 4.45650 | 46 ft | 51 kts | 110° |
| 2026-04-29 15:20 | 51.18934 | 4.46576 | 46 ft | 127 kts | 110° |
| 2026-04-29 15:20 | 51.18572 | 4.48153 | 494 ft | 162 kts | 107° |
| 2026-04-29 15:20 | 51.18252 | 4.49787 | 1448 ft | 160 kts | 101° |
| 2026-04-29 15:20 | 51.17938 | 4.51474 | 2239 ft | 159 kts | 108° |
| 2026-04-29 15:21 | 51.17256 | 4.52925 | 2740 ft | 178 kts | 134° |
| 2026-04-29 15:21 | 51.16127 | 4.53923 | 3228 ft | 198 kts | 152° |
| 2026-04-29 15:21 | 51.14737 | 4.54293 | 3828 ft | 212 kts | 172° |
| 2026-04-29 15:21 | 51.13257 | 4.53844 | 4491 ft | 225 kts | 197° |
| 2026-04-29 15:22 | 51.12004 | 4.52286 | 5156 ft | 236 kts | 228° |
| 2026-04-29 15:22 | 51.11309 | 4.49944 | 5805 ft | 242 kts | 255° |
| 2026-04-29 15:22 | 51.11239 | 4.47262 | 6448 ft | 244 kts | 275° |
| 2026-04-29 15:22 | 51.11399 | 4.44541 | 6890 ft | 256 kts | 275° |
| 2026-04-29 15:23 | 51.11541 | 4.41632 | 7267 ft | 271 kts | 276° |
| 2026-04-29 15:23 | 51.11886 | 4.38639 | 7721 ft | 280 kts | 287° |
| 2026-04-29 15:23 | 51.12503 | 4.35732 | 8365 ft | 280 kts | 293° |
| 2026-04-29 15:23 | 51.13197 | 4.32883 | 9001 ft | 281 kts | 294° |
| 2026-04-29 15:24 | 51.13907 | 4.29948 | 9598 ft | 286 kts | 293° |
| 2026-04-29 15:24 | 51.14593 | 4.26991 | 10312 ft | 289 kts | 292° |
| 2026-04-29 15:24 | 51.15283 | 4.23936 | 10752 ft | 303 kts | 292° |
| 2026-04-29 15:24 | 51.16037 | 4.20691 | 11187 ft | 318 kts | 296° |
| 2026-04-29 15:25 | 51.17143 | 4.17623 | 11558 ft | 328 kts | 314° |
| 2026-04-29 15:25 | 51.18861 | 4.15132 | 11950 ft | 338 kts | 327° |
| 2026-04-29 15:25 | 51.20827 | 4.12903 | 12335 ft | 353 kts | 329° |
| 2026-04-29 15:25 | 51.22877 | 4.10672 | 12936 ft | 361 kts | 329° |
| 2026-04-29 15:26 | 51.24946 | 4.08392 | 13629 ft | 365 kts | 330° |
| 2026-04-29 15:26 | 51.27138 | 4.06448 | 14371 ft | 364 kts | 340° |
| 2026-04-29 15:26 | 51.29555 | 4.05323 | 15121 ft | 360 kts | 356° |
| 2026-04-29 15:26 | 51.32034 | 4.05075 | 15872 ft | 360 kts | 2° |
| 2026-04-29 15:27 | 51.34517 | 4.05070 | 16547 ft | 364 kts | 3° |
| 2026-04-29 15:27 | 51.37074 | 4.05118 | 17286 ft | 365 kts | 3° |
| 2026-04-29 15:27 | 51.39600 | 4.05149 | 17939 ft | 369 kts | 2° |
| 2026-04-29 15:27 | 51.42162 | 4.05151 | 18540 ft | 374 kts | 2° |
| 2026-04-29 15:28 | 51.44788 | 4.05185 | 19195 ft | 377 kts | 5° |
| 2026-04-29 15:28 | 51.46550 | 4.05379 | 19603 ft | 379 kts | 9° |
| 2026-04-29 15:28 | 51.49947 | 4.06548 | 20420 ft | 380 kts | 20° |
| 2026-04-29 15:28 | 51.52427 | 4.08052 | 21058 ft | 381 kts | 25° |
| 2026-04-29 15:29 | 51.54830 | 4.09758 | 21621 ft | 384 kts | 27° |
| 2026-04-29 15:29 | 51.59704 | 4.13450 | 22755 ft | 390 kts | 28° |
| 2026-04-29 15:30 | 51.64613 | 4.17184 | 23846 ft | 395 kts | 28° |
| 2026-04-29 15:30 | 51.67092 | 4.19054 | 24378 ft | 398 kts | 28° |
| 2026-04-29 15:30 | 51.69610 | 4.20947 | 24858 ft | 401 kts | 28° |
| 2026-04-29 15:30 | 51.72158 | 4.22858 | 25380 ft | 404 kts | 28° |
| 2026-04-29 15:31 | 51.74690 | 4.24755 | 25902 ft | 406 kts | 28° |
| 2026-04-29 15:31 | 51.77255 | 4.26678 | 26374 ft | 409 kts | 28° |
| 2026-04-29 15:31 | 51.79844 | 4.28623 | 26875 ft | 411 kts | 28° |
| 2026-04-29 15:31 | 51.82418 | 4.30558 | 27330 ft | 413 kts | 28° |
| 2026-04-29 15:32 | 51.85039 | 4.32531 | 27812 ft | 415 kts | 28° |
| 2026-04-29 15:32 | 51.87675 | 4.34517 | 28317 ft | 416 kts | 28° |
| 2026-04-29 15:32 | 51.90272 | 4.36476 | 28723 ft | 419 kts | 28° |
| 2026-04-29 15:32 | 51.92940 | 4.38491 | 29186 ft | 421 kts | 28° |
| 2026-04-29 15:33 | 51.95593 | 4.40497 | 29713 ft | 421 kts | 28° |
| 2026-04-29 15:33 | 51.98248 | 4.42507 | 30148 ft | 423 kts | 28° |
| 2026-04-29 15:33 | 52.00915 | 4.44531 | 30432 ft | 428 kts | 29° |
| 2026-04-29 15:33 | 52.03611 | 4.46579 | 30923 ft | 427 kts | 28° |
| 2026-04-29 15:34 | 52.06317 | 4.48637 | 31235 ft | 431 kts | 28° |
| 2026-04-29 15:34 | 52.09017 | 4.50691 | 31872 ft | 427 kts | 28° |
| 2026-04-29 15:34 | 52.11727 | 4.52753 | 32554 ft | 422 kts | 28° |
| 2026-04-29 15:34 | 52.14354 | 4.54753 | 33055 ft | 420 kts | 28° |
| 2026-04-29 15:35 | 52.16995 | 4.56771 | 33470 ft | 420 kts | 28° |
| 2026-04-29 15:35 | 52.19633 | 4.58790 | 33954 ft | 418 kts | 28° |
| 2026-04-29 15:35 | 52.22225 | 4.60775 | 34458 ft | 416 kts | 28° |
| 2026-04-29 15:35 | 52.24857 | 4.62796 | 34770 ft | 417 kts | 29° |
| 2026-04-29 15:36 | 52.27487 | 4.64818 | 35177 ft | 415 kts | 28° |
| 2026-04-29 15:36 | 52.30079 | 4.66812 | 35314 ft | 417 kts | 29° |
| 2026-04-29 15:36 | 52.32703 | 4.68836 | 35333 ft | 415 kts | 29° |
| 2026-04-29 15:37 | 52.37929 | 4.72872 | 35341 ft | 417 kts | 29° |
| 2026-04-29 15:37 | 52.43102 | 4.76874 | 35341 ft | 412 kts | 29° |
| 2026-04-29 15:38 | 52.48316 | 4.80921 | 35354 ft | 413 kts | 29° |
| 2026-04-29 15:38 | 52.53270 | 4.85542 | 35353 ft | 409 kts | 39° |
| 2026-04-29 15:39 | 52.57294 | 4.91971 | 35364 ft | 405 kts | 51° |
| 2026-04-29 15:39 | 52.60827 | 4.99195 | 35355 ft | 404 kts | 53° |
| 2026-04-29 15:40 | 52.64242 | 5.06475 | 35360 ft | 404 kts | 53° |
| 2026-04-29 15:40 | 52.67663 | 5.13743 | 35366 ft | 402 kts | 53° |
| 2026-04-29 15:41 | 52.71105 | 5.21025 | 35364 ft | 402 kts | 53° |
| 2026-04-29 15:41 | 52.74530 | 5.28262 | 35366 ft | 403 kts | 53° |
| 2026-04-29 15:42 | 52.77960 | 5.35508 | 35368 ft | 402 kts | 53° |
| 2026-04-29 15:42 | 52.81392 | 5.42775 | 35370 ft | 401 kts | 53° |
| 2026-04-29 15:43 | 52.84818 | 5.50065 | 35367 ft | 401 kts | 53° |
| 2026-04-29 15:43 | 52.88203 | 5.57285 | 35370 ft | 398 kts | 52° |
| 2026-04-29 15:44 | 52.91587 | 5.64524 | 35379 ft | 399 kts | 53° |
| 2026-04-29 15:44 | 52.94983 | 5.71812 | 35380 ft | 398 kts | 53° |
| 2026-04-29 15:45 | 52.98363 | 5.79083 | 35391 ft | 399 kts | 53° |
| 2026-04-29 15:45 | 53.01728 | 5.86345 | 35393 ft | 398 kts | 53° |
| 2026-04-29 15:46 | 53.05097 | 5.93637 | 35407 ft | 397 kts | 53° |
| 2026-04-29 15:46 | 53.08422 | 6.00853 | 35396 ft | 395 kts | 53° |
| 2026-04-29 15:47 | 53.11774 | 6.08149 | 35403 ft | 398 kts | 53° |
| 2026-04-29 15:47 | 53.15116 | 6.15444 | 35404 ft | 397 kts | 53° |
| 2026-04-29 15:48 | 53.18435 | 6.22713 | 35401 ft | 397 kts | 53° |
| 2026-04-29 15:48 | 53.21763 | 6.30022 | 35400 ft | 395 kts | 53° |
| 2026-04-29 15:49 | 53.25081 | 6.37327 | 35399 ft | 395 kts | 53° |
| 2026-04-29 15:49 | 53.28386 | 6.44628 | 35410 ft | 395 kts | 53° |
| 2026-04-29 15:50 | 53.31700 | 6.51967 | 35413 ft | 396 kts | 52° |
| 2026-04-29 15:50 | 53.35137 | 6.59109 | 35414 ft | 396 kts | 47° |
| 2026-04-29 15:51 | 53.38972 | 6.65419 | 35417 ft | 396 kts | 44° |
| 2026-04-29 15:51 | 53.43055 | 6.71653 | 35416 ft | 395 kts | 43° |
| 2026-04-29 15:52 | 53.47098 | 6.77827 | 35419 ft | 395 kts | 43° |
| 2026-04-29 15:52 | 53.51145 | 6.84054 | 35420 ft | 395 kts | 44° |
| 2026-04-29 15:53 | 53.55171 | 6.90282 | 35404 ft | 395 kts | 44° |
| 2026-04-29 15:53 | 53.59272 | 6.96433 | 35420 ft | 396 kts | 41° |
| 2026-04-29 15:54 | 53.63468 | 7.02335 | 35412 ft | 393 kts | 41° |
| 2026-04-29 15:54 | 53.67649 | 7.08204 | 35417 ft | 393 kts | 40° |
| 2026-04-29 15:55 | 53.71848 | 7.14148 | 34924 ft | 397 kts | 41° |
| 2026-04-29 15:55 | 53.73941 | 7.17128 | 34373 ft | 394 kts | 41° |
| 2026-04-29 15:55 | 53.76037 | 7.20126 | 33540 ft | 396 kts | 41° |
| 2026-04-29 15:55 | 53.78121 | 7.23127 | 32540 ft | 402 kts | 41° |
| 2026-04-29 15:56 | 53.80248 | 7.26203 | 31632 ft | 405 kts | 41° |
| 2026-04-29 15:56 | 53.82369 | 7.29276 | 31043 ft | 400 kts | 41° |
| 2026-04-29 15:56 | 53.84444 | 7.32287 | 30524 ft | 395 kts | 41° |
| 2026-04-29 15:56 | 53.86503 | 7.35377 | 29831 ft | 392 kts | 43° |
| 2026-04-29 15:57 | 53.88391 | 7.38620 | 29254 ft | 388 kts | 46° |
| 2026-04-29 15:57 | 53.90181 | 7.41966 | 28570 ft | 386 kts | 48° |
| 2026-04-29 15:57 | 53.91939 | 7.45374 | 27964 ft | 382 kts | 48° |
| 2026-04-29 15:57 | 53.93653 | 7.48720 | 27333 ft | 379 kts | 48° |
| 2026-04-29 15:58 | 53.95364 | 7.52053 | 26604 ft | 374 kts | 48° |
| 2026-04-29 15:58 | 53.97086 | 7.55392 | 25818 ft | 371 kts | 48° |
| 2026-04-29 15:58 | 53.98770 | 7.58645 | 25046 ft | 368 kts | 48° |
| 2026-04-29 15:58 | 54.00424 | 7.61835 | 24373 ft | 363 kts | 47° |
| 2026-04-29 15:59 | 54.02096 | 7.65055 | 23598 ft | 360 kts | 48° |
| 2026-04-29 15:59 | 54.03745 | 7.68227 | 22885 ft | 357 kts | 48° |
| 2026-04-29 15:59 | 54.05361 | 7.71339 | 22272 ft | 352 kts | 48° |
| 2026-04-29 15:59 | 54.06951 | 7.74404 | 21708 ft | 345 kts | 48° |
| 2026-04-29 16:00 | 54.08526 | 7.77442 | 21148 ft | 339 kts | 48° |
| 2026-04-29 16:00 | 54.10086 | 7.80453 | 20601 ft | 344 kts | 48° |
| 2026-04-29 16:00 | 54.11662 | 7.83495 | 20031 ft | 344 kts | 48° |
| 2026-04-29 16:00 | 54.13229 | 7.86527 | 19465 ft | 342 kts | 48° |
| 2026-04-29 16:01 | 54.14782 | 7.89563 | 18901 ft | 340 kts | 50° |
| 2026-04-29 16:01 | 54.16212 | 7.92731 | 18332 ft | 338 kts | 54° |
| 2026-04-29 16:01 | 54.17489 | 7.96097 | 17773 ft | 336 kts | 57° |
| 2026-04-29 16:01 | 54.18656 | 7.99499 | 17223 ft | 335 kts | 58° |
| 2026-04-29 16:02 | 54.19795 | 8.02932 | 16672 ft | 333 kts | 59° |
| 2026-04-29 16:02 | 54.20934 | 8.06372 | 16119 ft | 331 kts | 58° |
| 2026-04-29 16:02 | 54.22065 | 8.09753 | 15571 ft | 328 kts | 58° |
| 2026-04-29 16:02 | 54.23188 | 8.13083 | 15032 ft | 326 kts | 58° |
| 2026-04-29 16:03 | 54.24323 | 8.16435 | 14491 ft | 324 kts | 58° |
| 2026-04-29 16:03 | 54.25435 | 8.19720 | 13962 ft | 322 kts | 58° |
| 2026-04-29 16:03 | 54.26556 | 8.23037 | 13416 ft | 320 kts | 58° |
| 2026-04-29 16:03 | 54.27661 | 8.26307 | 12891 ft | 318 kts | 58° |
| 2026-04-29 16:04 | 54.28754 | 8.29546 | 12360 ft | 316 kts | 58° |
| 2026-04-29 16:04 | 54.29844 | 8.32784 | 11832 ft | 315 kts | 58° |
| 2026-04-29 16:04 | 54.30923 | 8.35993 | 11331 ft | 312 kts | 58° |
| 2026-04-29 16:04 | 54.31988 | 8.39166 | 11040 ft | 303 kts | 58° |
| 2026-04-29 16:05 | 54.33018 | 8.42238 | 10886 ft | 289 kts | 58° |
| 2026-04-29 16:05 | 54.34009 | 8.45141 | 10778 ft | 276 kts | 56° |
| 2026-04-29 16:05 | 54.35177 | 8.47605 | 10657 ft | 263 kts | 41° |
| 2026-04-29 16:05 | 54.36706 | 8.49227 | 10468 ft | 256 kts | 27° |
| 2026-04-29 16:06 | 54.38311 | 8.50477 | 10125 ft | 254 kts | 25° |
| 2026-04-29 16:06 | 54.39917 | 8.51730 | 9791 ft | 252 kts | 26° |
| 2026-04-29 16:06 | 54.41488 | 8.53021 | 9470 ft | 249 kts | 27° |
| 2026-04-29 16:06 | 54.43006 | 8.54311 | 9166 ft | 246 kts | 28° |
| 2026-04-29 16:07 | 54.44546 | 8.55629 | 8849 ft | 244 kts | 28° |
| 2026-04-29 16:07 | 54.46042 | 8.56910 | 8537 ft | 241 kts | 27° |
| 2026-04-29 16:07 | 54.47551 | 8.58198 | 8233 ft | 240 kts | 28° |
| 2026-04-29 16:07 | 54.49057 | 8.59488 | 7929 ft | 245 kts | 27° |
| 2026-04-29 16:08 | 54.50570 | 8.60782 | 7613 ft | 245 kts | 27° |
| 2026-04-29 16:08 | 54.52094 | 8.62085 | 7303 ft | 242 kts | 27° |
| 2026-04-29 16:08 | 54.53582 | 8.63361 | 6998 ft | 239 kts | 27° |
| 2026-04-29 16:08 | 54.55061 | 8.64631 | 6696 ft | 237 kts | 27° |
| 2026-04-29 16:09 | 54.56536 | 8.65898 | 6435 ft | 233 kts | 28° |
| 2026-04-29 16:09 | 54.57948 | 8.67110 | 6340 ft | 223 kts | 28° |
| 2026-04-29 16:09 | 54.59304 | 8.68275 | 6277 ft | 215 kts | 28° |
| 2026-04-29 16:09 | 54.60682 | 8.69334 | 6204 ft | 220 kts | 20° |
| 2026-04-29 16:10 | 54.62192 | 8.69497 | 6067 ft | 221 kts | 350° |
| 2026-04-29 16:10 | 54.63565 | 8.68306 | 5819 ft | 225 kts | 328° |
| 2026-04-29 16:10 | 54.64827 | 8.66678 | 5550 ft | 224 kts | 328° |
| 2026-04-29 16:10 | 54.66065 | 8.65120 | 5285 ft | 223 kts | 329° |
| 2026-04-29 16:11 | 54.67350 | 8.63551 | 4806 ft | 232 kts | 329° |
| 2026-04-29 16:11 | 54.68700 | 8.61912 | 4371 ft | 238 kts | 328° |
| 2026-04-29 16:11 | 54.70048 | 8.60263 | 4115 ft | 235 kts | 328° |
| 2026-04-29 16:11 | 54.71354 | 8.58658 | 3956 ft | 228 kts | 328° |
| 2026-04-29 16:12 | 54.72631 | 8.57082 | 3789 ft | 222 kts | 328° |
| 2026-04-29 16:12 | 54.73454 | 8.56069 | 3684 ft | 219 kts | 327° |
| 2026-04-29 16:12 | 54.75119 | 8.54028 | 3403 ft | 219 kts | 327° |
| 2026-04-29 16:12 | 54.76351 | 8.52521 | 3205 ft | 214 kts | 327° |
| 2026-04-29 16:13 | 54.77538 | 8.51069 | 3023 ft | 209 kts | 328° |
| 2026-04-29 16:13 | 54.78705 | 8.49616 | 2891 ft | 202 kts | 327° |
| 2026-04-29 16:13 | 54.79834 | 8.48205 | 2635 ft | 201 kts | 327° |
| 2026-04-29 16:13 | 54.80975 | 8.46798 | 2375 ft | 199 kts | 327° |
| 2026-04-29 16:14 | 54.82079 | 8.45436 | 2078 ft | 191 kts | 327° |
| 2026-04-29 16:14 | 54.83138 | 8.44132 | 1821 ft | 182 kts | 327° |
| 2026-04-29 16:14 | 54.84132 | 8.42908 | 1586 ft | 169 kts | 327° |
| 2026-04-29 16:14 | 54.85045 | 8.41783 | 1361 ft | 155 kts | 328° |
| 2026-04-29 16:15 | 54.85875 | 8.40761 | 1141 ft | 141 kts | 327° |
| 2026-04-29 16:15 | 54.86674 | 8.39783 | 968 ft | 140 kts | 328° |
| 2026-04-29 16:15 | 54.87465 | 8.38825 | 808 ft | 137 kts | 327° |
| 2026-04-29 16:15 | 54.88225 | 8.37859 | 647 ft | 134 kts | 326° |
| 2026-04-29 16:16 | 54.88979 | 8.36938 | 433 ft | 134 kts | 327° |
| 2026-04-29 16:16 | 54.89731 | 8.36010 | 241 ft | 131 kts | 327° |
| 2026-04-29 16:16 | 54.90470 | 8.35097 | 53 ft | 127 kts | 326° |
| 2026-04-29 16:16 | 54.91056 | 8.34381 | 38 ft | 68 kts | 325° |
| 2026-04-29 16:17 | 54.91369 | 8.33991 | 37 ft | 51 kts | 325° |
| 2026-04-29 16:17 | 54.91627 | 8.33673 | 36 ft | 40 kts | 324° |
| 2026-04-29 16:17 | 54.91821 | 8.33421 | 37 ft | 24 kts | 323° |
| 2026-04-29 16:17 | 54.91898 | 8.33291 | 36 ft | 10 kts | 262° |
| 2026-04-29 16:18 | 54.91835 | 8.33207 | 36 ft | 13 kts | 200° |
| 2026-04-29 16:18 | 54.91745 | 8.33174 | 35 ft | 13 kts | 179° |
| 2026-04-29 16:18 | 54.91655 | 8.33174 | 35 ft | 12 kts | 180° |
| 2026-04-29 16:18 | 54.91563 | 8.33174 | 34 ft | 14 kts | 179° |
| 2026-04-29 16:19 | 54.91464 | 8.33191 | 34 ft | 14 kts | 153° |
| 2026-04-29 16:19 | 54.91405 | 8.33234 | 34 ft | 5 kts | 188° |
| 2026-04-29 16:19 | 54.91386 | 8.33179 | 33 ft | 6 kts | 268° |
| 2026-04-29 16:19 | 54.91386 | 8.33127 | 33 ft | 0 kts | 269° |